LOWI 210150Z AUTO 17002KT 9999 FEW030 BKN044 10/08 Q1024 LOWI 210120Z AUTO VRB02KT 9999 FEW030 SCT044 11/08 Q1023 LOWI 210050Z AUTO VRB01KT 9999 FEW030 BKN044 12/09 Q1023 LOWI 210020Z AUTO VRB01KT 9999 FEW030 BKN042 12/09 Q1023 LOWI 202350Z AUTO VRB02KT 9999 FEW030 BKN042 12/09 Q1023 LOWI 202320Z AUTO VRB02KT 9999 FEW022 SCT036 BKN048 12/09 Q1023 LOWI 202250Z AUTO VRB01KT 9999 FEW022 BKN048 12/10 Q1023 LOWI 202220Z AUTO 00000KT 9999 FEW042 BKN046 12/09 Q1023 LOWI 202150Z AUTO VRB01KT 9999 FEW040 BKN044 13/10 Q1023 LOWI 202120Z AUTO VRB01KT 9999 FEW028 BKN042 13/09 Q1022 LOWI 202050Z AUTO 06002KT 9999 FEW032 OVC046 13/10 Q1022 LOWI 202020Z AUTO VRB02KT 9999 FEW028 BKN042 13/09 Q1022 LOWI 201950Z AUTO VRB01KT 9999 FEW028 BKN040 13/09 Q1021 LOWI 201920Z AUTO 13003KT 9999 FEW030 SCT040 BKN050 13/09 Q1021 LOWI 201850Z AUTO 17004KT 9999 FEW028 BKN050 13/09 Q1021 LOWI 201820Z AUTO VRB02KT 9999 FEW024 BKN050 14/10 Q1020 LOWI 201750Z 10005KT 070V130 9999 FEW030 BKN050 14/09 Q1020 NOSIG LOWI 201720Z 10005KT 060V120 9999 FEW030 BKN050 14/10 Q1019 NOSIG LOWI 201650Z 07007KT 9999 FEW030 BKN050 15/10 Q1019 NOSIG LOWI 201620Z 07008KT 040V100 9999 FEW030 SCT060 15/10 Q1019 NOSIG LOWI 201550Z 07010KT 9999 FEW030 SCT060 16/10 Q1018 NOSIG LOWI 201520Z 07010KT 040V110 9999 FEW040 17/10 Q1018 NOSIG LOWI 201450Z 06007KT 9999 FEW040 17/10 Q1018 NOSIG LOWI 201420Z 07005KT 040V140 9999 FEW040 18/09 Q1017 NOSIG LOWI 201350Z 09005KT 030V180 9999 FEW040 SCT070 19/09 Q1017 NOSIG LOWI 201320Z 06004KT 350V110 9999 FEW040 SCT070 18/09 Q1017 NOSIG LOWI 201250Z VRB03KT 9999 FEW035 SCT070 18/10 Q1017 NOSIG LOWI 201220Z 09004KT 030V140 9999 R08/P1500D R26/P1500D BCFG FEW035 SCT070 17/09 Q1018 NOSIG LOWI 201150Z VRB04KT 9999 FEW040 SCT070 18/11 Q1018 NOSIG LOWI 201120Z 06005KT 360V160 9999 FEW025 SCT070 17/10 Q1018 NOSIG LOWI 201050Z VRB03KT 9999 SCT020 SCT070 16/09 Q1018 NOSIG LOWI 201020Z VRB03KT 9999 FEW010 SCT020 BKN060 16/10 Q1019 NOSIG LOWI 200950Z VRB02KT 9999 FEW010 SCT020 BKN060 15/10 Q1019 NOSIG LOWI 200920Z VRB02KT 9999 FEW010 SCT020 BKN060 15/10 Q1019 NOSIG LOWI 200850Z VRB02KT 9999 FEW010 SCT015 BKN030 13/10 Q1019 NOSIG LOWI 200820Z VRB02KT 9999 FEW007 SCT010 BKN020 12/10 Q1019 NOSIG LOWI 200750Z VRB01KT 9999 -DZ FEW007 SCT010 BKN015 12/10 Q1018 NOSIG LOWI 200720Z VRB01KT 9999 FEW007 SCT009 BKN015 11/10 Q1018 TEMPO BKN013 LOWI 200650Z VRB02KT 9999 -DZ SCT007 BKN010 11/10 Q1018 TEMPO BKN020 LOWI 200620Z VRB01KT 9999 FEW007 SCT009 BKN013 11/09 Q1018 TEMPO BKN020 LOWI 200550Z VRB01KT 9999 FEW007 BKN009 BKN030 11/10 Q1018 TEMPO BKN020 LOWI 200520Z VRB01KT 9999 -DZRA SCT007 SCT010 BKN020 11/10 Q1018 TEMPO BKN010 LOWI 200450Z 17002KT 9000 -DZRA FEW007 SCT010 BKN015 11/10 Q1017 TEMPO BKN010 LOWI 200420Z VRB01KT 7000 SCT006 BKN009 11/10 Q1017 TEMPO BKN015 LOWI 200350Z VRB01KT 9000 -DZ FEW005 SCT009 BKN015 11/10 Q1017 TEMPO BKN008 LOWI 200320Z AUTO VRB01KT 9999 BKN009 11/10 Q1017 LOWI 200250Z AUTO VRB01KT 9999 -DZ SCT009 BKN050 11/10 Q1017 REDZ LOWI 200220Z AUTO VRB01KT 9999 -RA FEW009 BKN050 11/10 Q1017 LOWI 200150Z AUTO VRB02KT 9999 -DZ FEW010 BKN060 11/09 Q1017 REDZ LOWI 200120Z AUTO 27003KT 230V300 9999 -RADZ FEW009 BKN050 11/09 Q1017 LOWI 200050Z AUTO 27005KT 9999 -RADZ FEW017 BKN050 11/09 Q1016 LOWI 200020Z AUTO 28005KT 240V330 9999 -RA FEW011 BKN050 11/09 Q1016 LOWI 192350Z AUTO 25008KT 9999 FEW010 SCT013 BKN050 11/09 Q1016 LOWI 192320Z AUTO 26012KT 9999 -RA FEW013 BKN060 11/09 Q1016 LOWI 192250Z AUTO 25013KT 9999 -DZ FEW016 BKN060 11/09 Q1016 LOWI 192220Z AUTO 26013KT 9999 -RA FEW032 BKN050 11/09 Q1015 LOWI 192150Z AUTO 26014KT 9999 -RA FEW017 SCT026 BKN050 11/09 Q1015 LOWI 192120Z AUTO 26012KT 9999 -RA FEW020 BKN026 11/09 Q1015 LOWI 192050Z AUTO 25013KT 9999 -RA FEW015 BKN024 12/09 Q1015 RERA LOWI 192020Z AUTO 26009KT 9999 -RA FEW013 BKN019 12/10 Q1015 RERA LOWI 191950Z AUTO 25011KT 210V270 9999 RA FEW010 BKN019 12/10 Q1014 LOWI 191920Z AUTO 25014KT 210V270 9999 -RA FEW011 BKN017 13/11 Q1014 RERA LOWI 191850Z AUTO 26007KT 220V290 9999 -RA FEW015 BKN019 14/11 Q1013 LOWI 191820Z AUTO 27008KT 240V300 9999 FEW017 SCT022 BKN028 14/12 Q1013 LOWI 191750Z 26008KT 9999 FEW018 SCT032 BKN042 15/13 Q1012 NOSIG LOWI 191720Z 26006KT 9999 FEW015 SCT035 BKN050 15/13 Q1012 NOSIG LOWI 191650Z VRB04KT 9999 FEW013 SCT050 BKN075 15/12 Q1012 TEMPO SHRA LOWI 191620Z 06004KT 020V110 9999 FEW013 BKN075 15/13 Q1012 TEMPO SHRA LOWI 191550Z 13007KT 100V170 9999 FEW012 SCT040 BKN080 15/13 Q1011 RESHRA NOSIG LOWI 191520Z 04006KT 340V150 5000 SHRA FEW015 SCT035 BKN055 16/14 Q1011 TEMPO -SHRA LOWI 191450Z VRB03KT 9999 FEW017 SCT035 BKN065 17/13 Q1011 TEMPO SHRA LOWI 191420Z 13003KT 080V160 9999 FEW017 SCT050 BKN070 17/13 Q1011 TEMPO SHRA

METAR Messwerte

Zurück zur Übersicht

Ort
m ü. NN
Zeit Temperatur Taupunkt Rel.
Luftfeuchte
Luftdruck:
Altimeter
NN
Station
Wind in Beaufort
(Knoten)
Sichtweite
(Meter)
Wolken
(Meter über Grund)
Wettererscheinung
Innsbruck
581
Di 21.09. 03:5010887 %1024
1025
956
S 1 (2)>= 10000Stark bewölkt (1300)
Leicht bewölkt (910)
 
Innsbruck
581
Di 21.09. 03:2011882 %1023
1024
955
Uml 1 (2)>= 10000Wolkig (1300)
Leicht bewölkt (910)
 
Innsbruck
581
Di 21.09. 02:5012982 %1023
1024
955
Uml 1 (1)>= 10000Stark bewölkt (1300)
Leicht bewölkt (910)
 
Innsbruck
581
Di 21.09. 02:2012982 %1023
1024
955
Uml 1 (1)>= 10000Stark bewölkt (1300)
Leicht bewölkt (910)
 
Innsbruck
581
Di 21.09. 01:5012982 %1023
1024
955
Uml 1 (2)>= 10000Stark bewölkt (1300)
Leicht bewölkt (910)
 
Innsbruck
581
Di 21.09. 01:2012982 %1023
1024
955
Uml 1 (2)>= 10000Stark bewölkt (1500)
Wolkig (1100)
Leicht bewölkt (670)
 
Innsbruck
581
Di 21.09. 00:50121088 %1023
1024
955
Uml 1 (1)>= 10000Stark bewölkt (1500)
Leicht bewölkt (670)
 
Innsbruck
581
Di 21.09. 00:2012982 %1023
1024
955
Windstill>= 10000Stark bewölkt (1400)
Leicht bewölkt (1300)
 
Innsbruck
581
Mo 20.09. 23:50131082 %1023
1024
955
Uml 1 (1)>= 10000Stark bewölkt (1300)
Leicht bewölkt (1200)
 
Innsbruck
581
Mo 20.09. 23:2013977 %1022
1023
954
Uml 1 (1)>= 10000Stark bewölkt (1300)
Leicht bewölkt (850)
 
Innsbruck
581
Mo 20.09. 22:50131082 %1022
1023
954
ONO 1 (2)>= 10000Bedeckt (1400)
Leicht bewölkt (980)
 
Innsbruck
581
Mo 20.09. 22:2013977 %1022
1023
954
Uml 1 (2)>= 10000Stark bewölkt (1300)
Leicht bewölkt (850)
 
Innsbruck
581
Mo 20.09. 21:5013977 %1021
1022
953
Uml 1 (1)>= 10000Stark bewölkt (1200)
Leicht bewölkt (850)
 
Innsbruck
581
Mo 20.09. 21:2013977 %1021
1022
953
SO 2 (3)>= 10000Stark bewölkt (1500)
Wolkig (1200)
Leicht bewölkt (910)
 
Innsbruck
581
Mo 20.09. 20:5013977 %1021
1022
953
S 2 (4)>= 10000Stark bewölkt (1500)
Leicht bewölkt (850)
 
Innsbruck
581
Mo 20.09. 20:20141077 %1020
1020
952
Uml 1 (2)>= 10000Stark bewölkt (1500)
Leicht bewölkt (730)
 
Innsbruck
581
Mo 20.09. 19:5014972 %1020
1020
952
O 2 (5)
ONO - SO
>= 10000Stark bewölkt (1500)
Leicht bewölkt (910)
 
Innsbruck
581
Mo 20.09. 19:20141077 %1019
1019
951
O 2 (5)
ONO - OSO
>= 10000Stark bewölkt (1500)
Leicht bewölkt (910)
 
Innsbruck
581
Mo 20.09. 18:50151072 %1019
1019
951
ONO 3 (7)>= 10000Stark bewölkt (1500)
Leicht bewölkt (910)
 
Innsbruck
581
Mo 20.09. 18:20151072 %1019
1019
951
ONO 3 (8)
NO - O
>= 10000Wolkig (1800)
Leicht bewölkt (910)
 
Innsbruck
581
Mo 20.09. 17:50161068 %1018
1018
950
ONO 3 (10)>= 10000Wolkig (1800)
Leicht bewölkt (910)
 
Innsbruck
581
Mo 20.09. 17:20171063 %1018
1018
950
ONO 3 (10)
NO - OSO
>= 10000Leicht bewölkt (1200) 
Innsbruck
581
Mo 20.09. 16:50171063 %1018
1018
950
ONO 3 (7)>= 10000Leicht bewölkt (1200) 
Innsbruck
581
Mo 20.09. 16:2018956 %1017
1016
949
ONO 2 (5)
NO - SO
>= 10000Leicht bewölkt (1200) 
Innsbruck
581
Mo 20.09. 15:5019952 %1017
1016
949
O 2 (5)
NNO - S
>= 10000Wolkig (2100)
Leicht bewölkt (1200)
 
Innsbruck
581
Mo 20.09. 15:2018956 %1017
1016
949
ONO 2 (4)
N - OSO
>= 10000Wolkig (2100)
Leicht bewölkt (1200)
 
Innsbruck
581
Mo 20.09. 14:50181059 %1017
1016
949
Uml 2 (3)>= 10000Wolkig (2100)
Leicht bewölkt (1100)
 
Innsbruck
581
Mo 20.09. 14:2017959 %1018
1018
950
O 2 (4)
NNO - SO
>= 10000Wolkig (2100)
Leicht bewölkt (1100)
Nebel-Bänke
Innsbruck
581
Mo 20.09. 13:50181164 %1018
1017
950
Uml 2 (4)>= 10000Wolkig (2100)
Leicht bewölkt (1200)
 
Innsbruck
581
Mo 20.09. 13:20171063 %1018
1018
950
ONO 2 (5)
N - SSO
>= 10000Wolkig (2100)
Leicht bewölkt (760)
 
Innsbruck
581
Mo 20.09. 12:5016963 %1018
1018
950
Uml 2 (3)>= 10000Wolkig (2100)
Wolkig (610)
 
Innsbruck
581
Mo 20.09. 12:20161068 %1019
1019
951
Uml 2 (3)>= 10000Stark bewölkt (1800)
Wolkig (610)
Leicht bewölkt (300)
 
Innsbruck
581
Mo 20.09. 11:50151072 %1019
1019
951
Uml 1 (2)>= 10000Stark bewölkt (1800)
Wolkig (610)
Leicht bewölkt (300)
 
Innsbruck
581
Mo 20.09. 11:20151072 %1019
1019
951
Uml 1 (2)>= 10000Stark bewölkt (1800)
Wolkig (610)
Leicht bewölkt (300)
 
Innsbruck
581
Mo 20.09. 10:50131082 %1019
1020
951
Uml 1 (2)>= 10000Stark bewölkt (910)
Wolkig (460)
Leicht bewölkt (300)
 
Innsbruck
581
Mo 20.09. 10:20121088 %1019
1020
951
Uml 1 (2)>= 10000Stark bewölkt (610)
Wolkig (300)
Leicht bewölkt (210)
 
Innsbruck
581
Mo 20.09. 09:50121088 %1018
1019
950
Uml 1 (1)>= 10000Stark bewölkt (460)
Wolkig (300)
Leicht bewölkt (210)
Nieselregen (schwach)
Innsbruck
581
Mo 20.09. 09:20111094 %1018
1019
950
Uml 1 (1)>= 10000Stark bewölkt (460)
Wolkig (270)
Leicht bewölkt (210)
 
Innsbruck
581
Mo 20.09. 08:50111094 %1018
1019
950
Uml 1 (2)>= 10000Stark bewölkt (300)
Wolkig (210)
Nieselregen (schwach)
Innsbruck
581
Mo 20.09. 08:2011987 %1018
1019
950
Uml 1 (1)>= 10000Stark bewölkt (400)
Wolkig (270)
Leicht bewölkt (210)
 
Innsbruck
581
Mo 20.09. 07:50111094 %1018
1019
950
Uml 1 (1)>= 10000Stark bewölkt (910)
Stark bewölkt (270)
Leicht bewölkt (210)
 
Innsbruck
581
Mo 20.09. 07:20111094 %1018
1019
950
Uml 1 (1)>= 10000Stark bewölkt (610)
Wolkig (300)
Wolkig (210)
Nieselregen/Regen (schwach)
Innsbruck
581
Mo 20.09. 06:50111094 %1017
1018
949
S 1 (2)9000Stark bewölkt (460)
Wolkig (300)
Leicht bewölkt (210)
Nieselregen/Regen (schwach)
Innsbruck
581
Mo 20.09. 06:20111094 %1017
1018
949
Uml 1 (1)7000Stark bewölkt (270)
Wolkig (180)
 
Innsbruck
581
Mo 20.09. 05:50111094 %1017
1018
949
Uml 1 (1)9000Stark bewölkt (460)
Wolkig (270)
Leicht bewölkt (150)
Nieselregen (schwach)
Innsbruck
581
Mo 20.09. 05:20111094 %1017
1018
949
Uml 1 (1)>= 10000Stark bewölkt (270) 
Innsbruck
581
Mo 20.09. 04:50111094 %1017
1018
949
Uml 1 (1)>= 10000Stark bewölkt (1500)
Wolkig (270)
Nieselregen (schwach)
Innsbruck
581
Mo 20.09. 04:20111094 %1017
1018
949
Uml 1 (1)>= 10000Stark bewölkt (1500)
Leicht bewölkt (270)
Regen (schwach)
Innsbruck
581
Mo 20.09. 03:5011987 %1017
1018
949
Uml 1 (2)>= 10000Stark bewölkt (1800)
Leicht bewölkt (300)
Nieselregen (schwach)
Innsbruck
581
Mo 20.09. 03:2011987 %1017
1018
949
W 2 (3)
SW - WNW
>= 10000Stark bewölkt (1500)
Leicht bewölkt (270)
Regen/Nieselregen (schwach)
Innsbruck
581
Mo 20.09. 02:5011987 %1016
1017
948
W 2 (5)>= 10000Stark bewölkt (1500)
Leicht bewölkt (520)
Regen/Nieselregen (schwach)
Innsbruck
581
Mo 20.09. 02:2011987 %1016
1017
948
W 2 (5)
WSW - NNW
>= 10000Stark bewölkt (1500)
Leicht bewölkt (340)
Regen (schwach)
Innsbruck
581
Mo 20.09. 01:5011987 %1016
1017
948
WSW 3 (8)>= 10000Stark bewölkt (1500)
Wolkig (400)
Leicht bewölkt (300)
 
Innsbruck
581
Mo 20.09. 01:2011987 %1016
1017
948
W 4 (12)>= 10000Stark bewölkt (1800)
Leicht bewölkt (400)
Regen (schwach)
Innsbruck
581
Mo 20.09. 00:5011987 %1016
1017
948
WSW 4 (13)>= 10000Stark bewölkt (1800)
Leicht bewölkt (490)
Nieselregen (schwach)
Innsbruck
581
Mo 20.09. 00:2011987 %1015
1016
947
W 4 (13)>= 10000Stark bewölkt (1500)
Leicht bewölkt (980)
Regen (schwach)
Innsbruck
581
So 19.09. 23:5011987 %1015
1016
947
W 4 (14)>= 10000Stark bewölkt (1500)
Wolkig (790)
Leicht bewölkt (520)
Regen (schwach)
Innsbruck
581
So 19.09. 23:2011987 %1015
1016
947
W 4 (12)>= 10000Stark bewölkt (790)
Leicht bewölkt (610)
Regen (schwach)
Innsbruck
581
So 19.09. 22:5012982 %1015
1016
947
WSW 4 (13)>= 10000Stark bewölkt (730)
Leicht bewölkt (460)
Regen (schwach)
Innsbruck
581
So 19.09. 22:20121088 %1015
1016
947
W 3 (9)>= 10000Stark bewölkt (580)
Leicht bewölkt (400)
Regen (schwach)
Innsbruck
581
So 19.09. 21:50121088 %1014
1015
946
WSW 4 (11)
SSW - W
>= 10000Stark bewölkt (580)
Leicht bewölkt (300)
Regen
Innsbruck
581
So 19.09. 21:20131188 %1014
1015
946
WSW 4 (14)
SSW - W
>= 10000Stark bewölkt (520)
Leicht bewölkt (340)
Regen (schwach)
Innsbruck
581
So 19.09. 20:50141182 %1013
1013
945
W 3 (7)
SW - WNW
>= 10000Stark bewölkt (580)
Leicht bewölkt (460)
Regen (schwach)
Innsbruck
581
So 19.09. 20:20141288 %1013
1013
945
W 3 (8)
WSW - WNW
>= 10000Stark bewölkt (850)
Wolkig (670)
Leicht bewölkt (520)
 
Innsbruck
581
So 19.09. 19:50151388 %1012
1012
944
W 3 (8)>= 10000Stark bewölkt (1300)
Wolkig (980)
Leicht bewölkt (550)
 
Innsbruck
581
So 19.09. 19:20151388 %1012
1012
944
W 2 (6)>= 10000Stark bewölkt (1500)
Wolkig (1100)
Leicht bewölkt (460)
 
Innsbruck
581
So 19.09. 18:50151282 %1012
1012
944
Uml 2 (4)>= 10000Stark bewölkt (2300)
Wolkig (1500)
Leicht bewölkt (400)
 Bald möglich: Regen-Schauer
Innsbruck
581
So 19.09. 18:20151388 %1012
1012
944
ONO 2 (4)
NNO - OSO
>= 10000Stark bewölkt (2300)
Leicht bewölkt (400)
 Bald möglich: Regen-Schauer
Innsbruck
581
So 19.09. 17:50151388 %1011
1011
943
SO 3 (7)
O - S
>= 10000Stark bewölkt (2400)
Wolkig (1200)
Leicht bewölkt (370)
 
Innsbruck
581
So 19.09. 17:20161488 %1011
1011
943
NO 2 (6)
NNW - SSO
5000Stark bewölkt (1700)
Wolkig (1100)
Leicht bewölkt (460)
Regen-Schauer
Bald möglich: Regen-Schauer (schwach)
Innsbruck
581
So 19.09. 16:50171377 %1011
1010
943
Uml 2 (3)>= 10000Stark bewölkt (2000)
Wolkig (1100)
Leicht bewölkt (520)
 Bald möglich: Regen-Schauer
Innsbruck
581
So 19.09. 16:20171377 %1011
1010
943
SO 2 (3)
O - SSO
>= 10000Stark bewölkt (2100)
Wolkig (1500)
Leicht bewölkt (520)
 Bald möglich: Regen-Schauer

Altimeter: Einstellung am Altimeter (Höhenmesser), die Höhe 0 muss auf diesen Luftdruckwert zeigen, damit das Gerät die Stationshöhe richtig anzeigt.

NN: Luftdruck reduziert auf "Normal Null", auf Meereshöhe, dieser von der Temperatur abhängige Wert wird bisweilen unkorrekt einfach als "Luftdruck" bezeichnet. Eigentlich nur eine fiktive Größe, die es erlaubt, Stationen auf unterschiedlichen Höhen miteinander zu vergleichen.

Station: Realer Luftdruck an der Station.